createdAt,value
2023-04-22T00:01:24.593Z,72.42
2023-04-22T00:03:27.095Z,72.55
2023-04-22T00:05:28.869Z,72.62
2023-04-22T00:07:30.541Z,72.76
2023-04-22T00:09:32.059Z,72.69
2023-04-22T00:11:33.543Z,72.65
2023-04-22T00:13:35.336Z,72.87
2023-04-22T00:15:36.919Z,72.81
2023-04-22T00:17:38.747Z,73.21
2023-04-22T00:19:41.612Z,72.47
2023-04-22T00:21:43.235Z,72.91
2023-04-22T00:23:45.431Z,72.59
2023-04-22T00:25:46.978Z,72.78
2023-04-22T00:27:48.515Z,73.00
2023-04-22T00:29:50.011Z,72.10
2023-04-22T00:31:51.715Z,71.65
2023-04-22T00:33:53.168Z,72.21
2023-04-22T00:35:54.886Z,71.74
2023-04-22T00:37:56.545Z,71.82
2023-04-22T00:39:58.065Z,72.32
2023-04-22T00:42:00.323Z,71.60
2023-04-22T00:44:01.907Z,72.06
2023-04-22T00:46:03.984Z,71.89
2023-04-22T00:48:05.836Z,71.48
2023-04-22T00:50:08.244Z,70.63
2023-04-22T00:52:09.747Z,70.51
2023-04-22T00:54:11.227Z,71.01
2023-04-22T00:56:13.235Z,71.24
2023-04-22T00:58:14.909Z,70.83
2023-04-22T01:00:17.062Z,70.63
2023-04-22T01:02:19.304Z,70.82
2023-04-22T01:04:21.927Z,71.76
2023-04-22T01:06:24.332Z,71.72
2023-04-22T01:08:29.728Z,71.46
2023-04-22T01:10:31.226Z,71.01
2023-04-22T01:12:32.835Z,70.00
2023-04-22T01:14:35.018Z,70.65
2023-04-22T01:16:39.014Z,71.07
2023-04-22T01:18:40.565Z,71.50
2023-04-22T01:20:42.083Z,71.17
2023-04-22T01:22:45.682Z,71.02
2023-04-22T01:24:47.433Z,70.78
2023-04-22T01:26:49.264Z,71.01
2023-04-22T01:28:51.191Z,71.22
2023-04-22T01:30:52.896Z,71.17
2023-04-22T01:32:55.012Z,70.18
2023-04-22T01:34:56.830Z,69.00
2023-04-22T01:36:58.425Z,66.78
2023-04-22T01:39:00.342Z,65.41
2023-04-22T01:41:02.802Z,66.85
2023-04-22T01:43:05.165Z,67.28
2023-04-22T01:45:07.596Z,68.84
2023-04-22T01:47:09.150Z,70.31
2023-04-22T01:49:10.727Z,70.18
2023-04-22T01:51:12.199Z,70.54
2023-04-22T01:53:13.759Z,70.58
2023-04-22T01:55:15.743Z,71.19
2023-04-22T01:57:17.699Z,71.50
2023-04-22T01:59:20.595Z,71.25
2023-04-22T02:01:22.243Z,71.82
2023-04-22T02:03:24.124Z,71.86
2023-04-22T02:05:26.317Z,71.93
2023-04-22T02:07:27.805Z,72.01
2023-04-22T02:09:29.322Z,72.28
2023-04-22T02:11:30.842Z,72.23
2023-04-22T02:13:37.314Z,72.01
2023-04-22T02:15:40.392Z,71.97
2023-04-22T02:17:43.435Z,72.05
2023-04-22T02:19:45.045Z,72.09
2023-04-22T02:21:46.537Z,72.12
2023-04-22T02:23:48.057Z,72.19
2023-04-22T02:25:50.772Z,72.32
2023-04-22T02:27:52.291Z,72.17
2023-04-22T02:29:53.767Z,72.55
2023-04-22T02:31:55.368Z,72.18
2023-04-22T02:33:56.880Z,72.44
2023-04-22T02:35:58.435Z,72.28
2023-04-22T02:37:59.901Z,72.10
2023-04-22T02:40:01.394Z,72.29
2023-04-22T02:42:02.972Z,72.47
2023-04-22T02:44:04.438Z,72.30
2023-04-22T02:46:06.271Z,72.10
2023-04-22T02:48:08.136Z,72.03
2023-04-22T02:50:10.387Z,72.00
2023-04-22T02:52:11.885Z,72.18
2023-04-22T02:54:13.328Z,72.13
2023-04-22T02:56:14.789Z,72.26
2023-04-22T02:58:16.282Z,72.46
2023-04-22T03:00:17.899Z,71.88
2023-04-22T03:02:19.573Z,72.06
2023-04-22T03:04:22.033Z,71.88
2023-04-22T03:06:23.703Z,72.19
2023-04-22T03:08:25.745Z,72.35
2023-04-22T03:10:27.226Z,72.56
2023-04-22T03:12:28.741Z,71.72
2023-04-22T03:14:30.211Z,71.95
2023-04-22T03:16:31.682Z,71.91
2023-04-22T03:18:33.261Z,71.78
2023-04-22T03:20:35.624Z,71.68
2023-04-22T03:22:37.449Z,71.44
2023-04-22T03:24:38.952Z,71.56
2023-04-22T03:26:40.475Z,71.45
2023-04-22T03:28:41.945Z,72.01
2023-04-22T03:30:43.472Z,71.41
2023-04-22T03:32:45.071Z,71.89
2023-04-22T03:34:46.638Z,71.32
2023-04-22T03:36:48.104Z,71.54
2023-04-22T03:38:50.055Z,71.22
2023-04-22T03:40:51.788Z,71.38
2023-04-22T03:42:53.346Z,71.33
2023-04-22T03:44:55.237Z,71.51
2023-04-22T03:46:56.721Z,71.16
2023-04-22T03:48:58.517Z,71.15
2023-04-22T03:50:59.975Z,71.16
2023-04-22T03:53:01.425Z,70.96
2023-04-22T03:55:02.989Z,71.37
2023-04-22T03:57:04.525Z,70.97
2023-04-22T03:59:06.026Z,71.80
2023-04-22T04:01:07.898Z,71.54
2023-04-22T04:03:09.634Z,71.18
2023-04-22T04:05:11.716Z,70.95
2023-04-22T04:07:13.756Z,71.31
2023-04-22T04:09:15.476Z,70.92
2023-04-22T04:11:17.041Z,71.63
2023-04-22T04:13:18.536Z,71.59
2023-04-22T04:15:21.331Z,71.76
2023-04-22T04:17:25.782Z,71.76
2023-04-22T04:19:27.433Z,71.46
2023-04-22T04:21:29.456Z,71.16
2023-04-22T04:23:31.001Z,71.03
2023-04-22T04:25:37.911Z,71.45
2023-04-22T04:27:39.528Z,71.32
2023-04-22T04:29:42.242Z,71.12
2023-04-22T04:31:44.070Z,71.17
2023-04-22T04:33:46.740Z,70.97
2023-04-22T04:35:48.595Z,70.95
2023-04-22T04:37:50.838Z,71.31
2023-04-22T04:39:52.341Z,71.34
2023-04-22T04:41:55.235Z,71.61
2023-04-22T04:43:56.903Z,71.40
2023-04-22T04:45:58.538Z,71.30
2023-04-22T04:48:00.685Z,71.54
2023-04-22T04:50:05.292Z,71.30
2023-04-22T04:52:10.119Z,71.05
2023-04-22T04:54:11.698Z,70.91
2023-04-22T04:56:13.454Z,71.22
2023-04-22T04:58:14.962Z,70.21
2023-04-22T05:00:17.128Z,70.16
2023-04-22T05:02:18.782Z,69.74
2023-04-22T05:04:20.554Z,69.57
2023-04-22T05:06:22.520Z,68.99
2023-04-22T05:08:24.128Z,68.86
2023-04-22T05:10:25.710Z,69.23
2023-04-22T05:12:27.224Z,69.12
2023-04-22T05:14:28.780Z,69.09
2023-04-22T05:16:30.538Z,69.23
2023-04-22T05:18:32.191Z,69.18
2023-04-22T05:20:35.879Z,69.51
2023-04-22T05:22:37.938Z,69.40
2023-04-22T05:24:39.400Z,69.16
2023-04-22T05:26:41.317Z,69.46
2023-04-22T05:28:42.808Z,69.11
2023-04-22T05:30:45.408Z,69.38
2023-04-22T05:32:46.949Z,69.40
2023-04-22T05:34:48.465Z,69.38
2023-04-22T05:36:49.961Z,69.94
2023-04-22T05:38:51.433Z,69.37
2023-04-22T05:40:52.941Z,69.31
2023-04-22T05:42:54.428Z,69.25
2023-04-22T05:44:56.052Z,69.15
2023-04-22T05:46:57.501Z,69.22
2023-04-22T05:48:59.029Z,69.09
2023-04-22T05:51:00.530Z,68.85
2023-04-22T05:53:01.991Z,68.63
2023-04-22T05:55:03.691Z,67.81
2023-04-22T05:57:05.406Z,67.75
2023-04-22T05:59:06.975Z,67.77
2023-04-22T06:01:09.623Z,67.54
2023-04-22T06:03:11.274Z,66.92
2023-04-22T06:05:13.195Z,66.33
2023-04-22T06:07:14.779Z,66.31
2023-04-22T06:09:16.281Z,65.81
2023-04-22T06:11:18.161Z,65.65
2023-04-22T06:13:19.650Z,64.97
2023-04-22T06:15:21.449Z,65.14
2023-04-22T06:17:23.175Z,65.30
2023-04-22T06:19:24.815Z,65.58
2023-04-22T06:21:26.767Z,66.19
2023-04-22T06:23:28.317Z,65.79
2023-04-22T06:25:30.565Z,65.74
2023-04-22T06:27:44.091Z,65.77
2023-04-22T06:29:50.647Z,65.95
2023-04-22T06:31:53.389Z,65.73
2023-04-22T06:33:54.942Z,65.54
2023-04-22T06:35:56.569Z,65.61
2023-04-22T06:37:58.070Z,65.73
2023-04-22T06:39:59.540Z,66.36
2023-04-22T06:42:02.439Z,66.04
2023-04-22T06:44:03.955Z,66.94
2023-04-22T06:46:05.623Z,66.81
2023-04-22T06:48:07.088Z,67.33
2023-04-22T06:50:09.704Z,67.05
2023-04-22T06:52:11.775Z,67.36
2023-04-22T06:54:13.416Z,67.70
2023-04-22T06:56:15.681Z,67.87
2023-04-22T06:58:17.192Z,68.01
2023-04-22T07:00:18.728Z,68.21
2023-04-22T07:02:20.680Z,68.73
2023-04-22T07:04:22.272Z,68.58
2023-04-22T07:06:24.175Z,69.08
2023-04-22T07:08:25.653Z,69.06
2023-04-22T07:10:27.216Z,68.29
2023-04-22T07:12:28.736Z,67.57
2023-04-22T07:14:30.229Z,67.34
2023-04-22T07:16:31.802Z,68.07
2023-04-22T07:18:35.447Z,67.05
2023-04-22T07:20:36.914Z,66.80
2023-04-22T07:22:38.365Z,66.00
2023-04-22T07:24:40.951Z,65.49
2023-04-22T07:26:45.282Z,65.47
2023-04-22T07:28:46.758Z,64.50
2023-04-22T07:30:48.716Z,63.92
2023-04-22T07:32:50.279Z,62.81
2023-04-22T07:34:51.736Z,63.01
2023-04-22T07:36:53.574Z,63.86
2023-04-22T07:38:55.329Z,63.80
2023-04-22T07:40:56.856Z,63.04
2023-04-22T07:42:58.318Z,63.66
2023-04-22T07:44:59.814Z,64.03
2023-04-22T07:47:01.274Z,63.21
2023-04-22T07:49:02.743Z,63.05
2023-04-22T07:51:04.489Z,63.62
2023-04-22T07:53:06.166Z,63.17
2023-04-22T07:55:08.397Z,61.72
2023-04-22T07:57:10.027Z,61.52
2023-04-22T07:59:11.504Z,61.38
2023-04-22T08:01:12.982Z,61.22
2023-04-22T08:03:14.814Z,61.31
2023-04-22T08:05:16.520Z,61.35
2023-04-22T08:07:32.521Z,62.16
2023-04-22T08:09:34.719Z,61.38
2023-04-22T08:11:36.372Z,60.94
2023-04-22T08:13:37.824Z,61.47
2023-04-22T08:15:40.014Z,61.91
2023-04-22T08:17:41.660Z,60.29
2023-04-22T08:19:43.184Z,60.76
2023-04-22T08:21:44.759Z,58.25
2023-04-22T08:23:46.311Z,59.27
2023-04-22T08:25:48.416Z,60.49
2023-04-22T08:27:51.431Z,60.74
2023-04-22T08:29:52.887Z,59.87
2023-04-22T08:31:54.364Z,59.10
2023-04-22T08:33:55.990Z,59.89
2023-04-22T08:35:57.668Z,60.54
2023-04-22T08:37:59.130Z,60.50
2023-04-22T08:40:00.759Z,60.00
2023-04-22T08:42:02.495Z,61.47
2023-04-22T08:44:05.559Z,62.06
2023-04-22T08:46:07.141Z,60.02
2023-04-22T08:48:13.294Z,59.74
2023-04-22T08:50:15.068Z,60.46
2023-04-22T08:52:16.580Z,59.63
2023-04-22T08:54:18.244Z,59.90
2023-04-22T08:56:20.874Z,59.50
2023-04-22T08:58:23.299Z,59.20
2023-04-22T09:00:24.932Z,59.25
2023-04-22T09:02:28.802Z,60.64
2023-04-22T09:04:30.417Z,59.03
2023-04-22T09:06:33.466Z,59.58
2023-04-22T09:08:35.463Z,60.42
2023-04-22T09:10:38.126Z,59.46
2023-04-22T09:12:41.310Z,60.11
2023-04-22T09:14:43.620Z,59.66
2023-04-22T09:16:48.655Z,59.26
2023-04-22T09:18:50.812Z,60.10
2023-04-22T09:20:55.454Z,60.59
2023-04-22T09:22:58.033Z,61.72
2023-04-22T09:24:59.694Z,61.40
2023-04-22T09:27:03.448Z,60.61
2023-04-22T09:29:09.271Z,61.34
2023-04-22T09:31:14.317Z,60.14
2023-04-22T09:33:17.373Z,60.90
2023-04-22T09:35:32.855Z,60.99
2023-04-22T09:37:46.676Z,61.38
2023-04-22T09:39:51.666Z,60.39
2023-04-22T09:41:55.397Z,60.47
2023-04-22T09:43:58.027Z,60.58
2023-04-22T09:45:59.753Z,60.17
2023-04-22T09:48:09.548Z,59.99
2023-04-22T09:50:11.435Z,58.23
2023-04-22T09:52:24.167Z,57.39
2023-04-22T09:54:25.628Z,58.22
2023-04-22T09:56:48.838Z,57.86
2023-04-22T09:58:53.327Z,56.90
2023-04-22T10:00:57.164Z,54.21
2023-04-22T10:02:59.287Z,56.93
2023-04-22T10:05:01.474Z,54.94
2023-04-22T10:07:03.283Z,56.75
2023-04-22T10:09:05.756Z,58.77
2023-04-22T10:11:08.700Z,57.19
2023-04-22T10:13:11.259Z,56.24
2023-04-22T10:15:12.762Z,56.03
2023-04-22T10:17:14.563Z,56.39
2023-04-22T10:19:25.787Z,56.64
2023-04-22T10:21:28.779Z,55.82
2023-04-22T10:23:32.956Z,52.38
2023-04-22T10:25:34.428Z,53.97
2023-04-22T10:27:35.893Z,52.40
2023-04-22T10:29:40.205Z,51.21
2023-04-22T10:31:41.877Z,49.39
2023-04-22T10:33:43.375Z,51.37
2023-04-22T10:36:10.457Z,53.14
2023-04-22T10:38:11.997Z,52.98
2023-04-22T10:40:18.288Z,46.62
2023-04-22T10:42:20.516Z,46.93
2023-04-22T10:44:22.971Z,45.08
2023-04-22T10:46:34.709Z,42.74
2023-04-22T10:48:50.673Z,43.60
2023-04-22T10:50:53.076Z,45.73
2023-04-22T10:53:21.832Z,43.22
2023-04-22T10:55:24.397Z,44.00
2023-04-22T10:57:36.300Z,44.09
2023-04-22T10:59:48.811Z,46.77
2023-04-22T11:01:52.813Z,49.79
2023-04-22T11:03:54.575Z,45.52
2023-04-22T11:06:16.997Z,43.77
2023-04-22T11:08:20.782Z,40.78
2023-04-22T11:10:44.073Z,38.94
2023-04-22T11:12:46.112Z,43.29
2023-04-22T11:14:50.059Z,43.13
2023-04-22T11:16:51.931Z,41.54
2023-04-22T11:18:55.815Z,39.40
2023-04-22T11:21:03.078Z,36.09
2023-04-22T11:23:04.993Z,35.50
2023-04-22T11:25:07.420Z,36.91
2023-04-22T11:27:08.920Z,35.81
2023-04-22T11:29:10.512Z,36.29
2023-04-22T11:31:12.128Z,41.03
2023-04-22T11:33:15.527Z,40.34
2023-04-22T11:35:22.616Z,36.44
2023-04-22T11:37:24.722Z,36.70
2023-04-22T11:39:35.614Z,36.39
2023-04-22T11:41:40.315Z,37.01
2023-04-22T11:43:48.243Z,36.17
2023-04-22T11:45:49.954Z,37.83
2023-04-22T11:47:52.406Z,44.73
2023-04-22T11:50:04.613Z,43.03
2023-04-22T11:52:06.176Z,40.94
2023-04-22T11:54:09.646Z,33.75
2023-04-22T11:56:12.899Z,32.75
2023-04-22T11:58:24.549Z,35.21
2023-04-22T12:00:45.370Z,34.98
2023-04-22T12:03:20.635Z,35.75
2023-04-22T12:05:32.622Z,37.60
2023-04-22T12:07:34.272Z,33.20
2023-04-22T12:09:35.795Z,33.90
2023-04-22T12:11:38.913Z,41.65
2023-04-22T12:13:43.638Z,37.51
2023-04-22T12:15:45.387Z,34.28
2023-04-22T12:17:46.973Z,39.67
2023-04-22T12:19:48.556Z,35.63
2023-04-22T12:21:50.004Z,32.27
2023-04-22T12:23:55.356Z,31.81
2023-04-22T12:25:57.298Z,33.68
2023-04-22T12:27:58.789Z,32.61
2023-04-22T12:30:00.412Z,33.29
2023-04-22T12:32:01.915Z,35.41
2023-04-22T12:34:04.218Z,34.90
2023-04-22T12:36:06.802Z,35.59
2023-04-22T12:38:08.492Z,41.56
2023-04-22T12:40:11.580Z,42.83
2023-04-22T12:42:13.184Z,35.93
2023-04-22T12:44:14.646Z,42.65
2023-04-22T12:46:16.710Z,42.74
2023-04-22T12:48:18.310Z,37.44
2023-04-22T12:50:20.528Z,38.70
2023-04-22T12:52:22.016Z,39.49
2023-04-22T12:54:24.077Z,36.60
2023-04-22T12:56:26.500Z,37.91
2023-04-22T12:58:28.019Z,45.75
2023-04-22T13:00:29.843Z,40.52
2023-04-22T13:02:31.514Z,46.11
2023-04-22T13:04:33.157Z,35.05
2023-04-22T13:06:34.793Z,36.10
2023-04-22T13:08:36.299Z,39.58
2023-04-22T13:10:37.926Z,39.21
2023-04-22T13:12:40.790Z,42.63
2023-04-22T13:14:42.713Z,36.95
2023-04-22T13:16:44.717Z,44.09
2023-04-22T13:18:46.295Z,41.87
2023-04-22T13:20:47.835Z,34.78
2023-04-22T13:22:50.624Z,35.72
2023-04-22T13:24:53.308Z,36.30
2023-04-22T13:26:54.871Z,34.17
2023-04-22T13:28:56.334Z,35.95
2023-04-22T13:30:57.833Z,35.88
2023-04-22T13:32:59.308Z,38.23
2023-04-22T13:35:02.889Z,40.34
2023-04-22T13:37:04.674Z,41.44
2023-04-22T13:39:06.426Z,36.24
2023-04-22T13:41:07.901Z,33.66
2023-04-22T13:43:09.971Z,32.88
2023-04-22T13:45:11.492Z,34.71
2023-04-22T13:47:12.988Z,41.24
2023-04-22T13:49:14.491Z,37.01
2023-04-22T13:51:16.001Z,33.99
2023-04-22T13:53:17.603Z,35.01
2023-04-22T13:55:19.096Z,45.58
2023-04-22T13:57:20.675Z,35.44
2023-04-22T13:59:22.260Z,37.80
2023-04-22T14:01:25.253Z,35.31
2023-04-22T14:03:28.341Z,44.47
2023-04-22T14:05:30.204Z,40.10
2023-04-22T14:07:31.676Z,40.61
2023-04-22T14:09:34.504Z,46.33
2023-04-22T14:11:36.251Z,41.26
2023-04-22T14:13:38.662Z,36.63
2023-04-22T14:15:40.287Z,36.41
2023-04-22T14:17:41.857Z,35.08
2023-04-22T14:19:44.894Z,39.31
2023-04-22T14:21:46.691Z,46.25
2023-04-22T14:23:48.161Z,36.58
2023-04-22T14:25:49.663Z,36.76
2023-04-22T14:27:51.363Z,35.86
2023-04-22T14:29:53.236Z,35.95
2023-04-22T14:31:54.761Z,37.07
2023-04-22T14:33:56.541Z,37.26
2023-04-22T14:35:58.070Z,37.30
2023-04-22T14:37:59.694Z,39.10
2023-04-22T14:40:01.384Z,36.89
2023-04-22T14:42:03.831Z,39.47
2023-04-22T14:44:05.560Z,37.64
2023-04-22T14:46:07.037Z,37.18
2023-04-22T14:48:08.623Z,36.98
2023-04-22T14:50:10.439Z,38.16
2023-04-22T14:52:12.004Z,37.24
2023-04-22T14:54:13.783Z,37.76
2023-04-22T14:56:15.478Z,37.95
2023-04-22T14:58:16.974Z,38.11
2023-04-22T15:00:18.785Z,38.98
2023-04-22T15:02:20.415Z,39.03
2023-04-22T15:04:22.197Z,43.44
2023-04-22T15:06:24.093Z,46.69
2023-04-22T15:08:25.898Z,39.42
2023-04-22T15:10:28.124Z,42.34
2023-04-22T15:12:29.594Z,42.08
2023-04-22T15:14:32.253Z,40.98
2023-04-22T15:16:33.850Z,44.16
2023-04-22T15:18:35.854Z,42.26
2023-04-22T15:20:37.555Z,42.26
2023-04-22T15:22:41.269Z,45.01
2023-04-22T15:24:42.760Z,50.45
2023-04-22T15:26:44.345Z,42.02
2023-04-22T15:28:45.928Z,45.79
2023-04-22T15:30:48.682Z,48.30
2023-04-22T15:32:50.275Z,44.03
2023-04-22T15:34:51.783Z,37.00
2023-04-22T15:36:53.528Z,39.64
2023-04-22T15:38:56.345Z,43.79
2023-04-22T15:40:57.922Z,40.68
2023-04-22T15:42:59.365Z,38.34
2023-04-22T15:45:01.774Z,41.23
2023-04-22T15:47:04.057Z,41.70
2023-04-22T15:49:05.645Z,38.10
2023-04-22T15:51:07.388Z,38.02
2023-04-22T15:53:09.218Z,40.05
2023-04-22T15:55:10.870Z,40.26
2023-04-22T15:57:12.382Z,38.16
2023-04-22T15:59:13.899Z,40.94
2023-04-22T16:01:19.511Z,38.14
2023-04-22T16:03:21.755Z,37.96
2023-04-22T16:05:24.963Z,40.63
2023-04-22T16:07:27.433Z,45.76
2023-04-22T16:09:28.994Z,44.99
2023-04-22T16:11:30.580Z,47.24
2023-04-22T16:13:32.093Z,38.96
2023-04-22T16:15:33.685Z,41.28
2023-04-22T16:17:35.720Z,44.37
2023-04-22T16:19:37.481Z,49.53
2023-04-22T16:21:39.094Z,42.58
2023-04-22T16:23:40.795Z,41.87
2023-04-22T16:25:42.370Z,46.89
2023-04-22T16:27:44.044Z,41.14
2023-04-22T16:29:46.086Z,46.13
2023-04-22T16:31:47.669Z,39.54
2023-04-22T16:33:51.304Z,42.60
2023-04-22T16:35:52.764Z,46.61
2023-04-22T16:37:54.308Z,44.35
2023-04-22T16:39:56.295Z,41.24
2023-04-22T16:41:58.638Z,41.34
2023-04-22T16:44:01.040Z,42.76
2023-04-22T16:46:03.753Z,40.57
2023-04-22T16:48:05.418Z,45.69
2023-04-22T16:50:07.632Z,43.61
2023-04-22T16:52:09.189Z,43.25
2023-04-22T16:54:10.676Z,41.29
2023-04-22T16:56:12.160Z,44.26
2023-04-22T16:58:13.710Z,41.23
2023-04-22T17:00:15.683Z,41.08
2023-04-22T17:02:17.475Z,41.02
2023-04-22T17:04:19.263Z,41.05
2023-04-22T17:06:21.589Z,40.88
2023-04-22T17:08:23.148Z,41.25
2023-04-22T17:10:24.608Z,42.27
2023-04-22T17:12:26.103Z,42.37
2023-04-22T17:14:27.640Z,41.36
2023-04-22T17:16:29.539Z,42.05
2023-04-22T17:18:31.116Z,41.24
2023-04-22T17:20:32.678Z,41.36
2023-04-22T17:22:34.229Z,41.54
2023-04-22T17:24:35.887Z,41.25
2023-04-22T17:26:37.635Z,41.34
2023-04-22T17:28:39.180Z,41.71
2023-04-22T17:30:40.823Z,43.07
2023-04-22T17:32:42.411Z,42.84
2023-04-22T17:34:43.898Z,41.92
2023-04-22T17:36:45.358Z,42.51
2023-04-22T17:38:46.880Z,42.60
2023-04-22T17:40:48.432Z,43.44
2023-04-22T17:42:50.001Z,45.61
2023-04-22T17:44:51.453Z,47.30
2023-04-22T17:46:53.055Z,50.61
2023-04-22T17:48:54.602Z,51.94
2023-04-22T17:50:56.123Z,56.21
2023-04-22T17:52:58.134Z,55.71
2023-04-22T17:55:00.004Z,62.01
2023-04-22T17:57:02.230Z,65.32
2023-04-22T17:59:03.677Z,68.23
2023-04-22T18:01:06.444Z,70.04
2023-04-22T18:03:08.328Z,73.49
2023-04-22T18:05:10.175Z,74.31
2023-04-22T18:07:11.688Z,76.66
2023-04-22T18:09:13.202Z,77.80
2023-04-22T18:11:14.746Z,77.51
2023-04-22T18:13:16.243Z,78.91
2023-04-22T18:15:17.917Z,79.60
2023-04-22T18:17:20.182Z,79.02
2023-04-22T18:19:21.660Z,79.35
2023-04-22T18:21:23.220Z,79.47
2023-04-22T18:23:24.754Z,78.79
2023-04-22T18:25:26.894Z,79.59
2023-04-22T18:27:28.946Z,79.46
2023-04-22T18:29:30.485Z,79.53
2023-04-22T18:31:32.010Z,81.02
2023-04-22T18:33:33.978Z,80.22
2023-04-22T18:35:35.753Z,79.36
2023-04-22T18:37:37.227Z,79.62
2023-04-22T18:39:39.654Z,80.15
2023-04-22T18:41:42.781Z,80.74
2023-04-22T18:43:44.368Z,81.61
2023-04-22T18:45:46.413Z,81.46
2023-04-22T18:47:47.931Z,82.24
2023-04-22T18:49:49.414Z,82.34
2023-04-22T18:51:50.953Z,82.78
2023-04-22T18:53:52.450Z,83.28
2023-04-22T18:55:53.976Z,83.33
2023-04-22T18:57:55.618Z,83.48
2023-04-22T18:59:57.123Z,83.46
2023-04-22T19:01:58.652Z,83.69
2023-04-22T19:04:01.708Z,84.19
2023-04-22T19:06:03.798Z,84.16
2023-04-22T19:08:05.369Z,84.46
2023-04-22T19:10:07.892Z,85.09
2023-04-22T19:12:14.625Z,85.17
2023-04-22T19:14:16.179Z,85.78
2023-04-22T19:16:18.117Z,86.20
2023-04-22T19:18:19.641Z,86.77
2023-04-22T19:20:21.093Z,87.17
2023-04-22T19:22:22.637Z,87.57
2023-04-22T19:24:24.164Z,88.06
2023-04-22T19:26:28.866Z,88.58
2023-04-22T19:28:30.928Z,89.03
2023-04-22T19:30:32.425Z,89.85
2023-04-22T19:32:34.120Z,90.03
2023-04-22T19:34:36.776Z,90.42
2023-04-22T19:36:38.362Z,90.40
2023-04-22T19:38:39.963Z,90.69
2023-04-22T19:40:41.742Z,90.65
2023-04-22T19:42:43.294Z,90.97
2023-04-22T19:44:46.766Z,90.92
2023-04-22T19:46:48.484Z,91.13
2023-04-22T19:48:51.330Z,90.86
2023-04-22T19:50:53.577Z,90.56
2023-04-22T19:53:03.479Z,90.23
2023-04-22T19:55:10.075Z,90.19
2023-04-22T19:57:12.168Z,89.94
2023-04-22T19:59:14.271Z,89.80
2023-04-22T20:01:16.059Z,89.01
2023-04-22T20:03:17.874Z,88.08
2023-04-22T20:05:20.054Z,87.44
2023-04-22T20:07:21.896Z,86.39
2023-04-22T20:09:23.957Z,86.70
2023-04-22T20:11:29.485Z,87.42
2023-04-22T20:13:32.451Z,86.67
2023-04-22T20:15:34.210Z,85.93
2023-04-22T20:17:38.617Z,85.65
2023-04-22T20:19:40.845Z,85.59
2023-04-22T20:21:43.219Z,85.27
2023-04-22T20:23:45.860Z,85.11
2023-04-22T20:25:47.701Z,84.95
2023-04-22T20:27:49.281Z,84.50
2023-04-22T20:29:51.420Z,84.18
2023-04-22T20:31:53.112Z,83.97
2023-04-22T20:33:54.693Z,84.24
2023-04-22T20:35:56.960Z,84.27
2023-04-22T20:38:00.305Z,84.47
2023-04-22T20:40:04.898Z,84.85
2023-04-22T20:42:06.893Z,84.54
2023-04-22T20:44:08.518Z,83.85
2023-04-22T20:46:10.013Z,83.42
2023-04-22T20:48:11.657Z,83.12
2023-04-22T20:50:13.384Z,82.88
2023-04-22T20:52:15.030Z,82.99
2023-04-22T20:54:27.772Z,82.61
2023-04-22T20:56:30.657Z,82.69
2023-04-22T20:58:33.283Z,83.90
2023-04-22T21:00:34.834Z,84.68
2023-04-22T21:02:37.664Z,84.09
2023-04-22T21:04:40.411Z,83.84
2023-04-22T21:06:45.254Z,83.76
2023-04-22T21:08:50.152Z,83.52
2023-04-22T21:10:54.714Z,84.34
2023-04-22T21:12:56.405Z,84.24
2023-04-22T21:14:58.261Z,84.86
2023-04-22T21:17:03.828Z,84.81
2023-04-22T21:19:07.049Z,85.42
2023-04-22T21:21:10.003Z,85.90
2023-04-22T21:23:13.741Z,85.64
2023-04-22T21:25:21.437Z,86.56
2023-04-22T21:27:23.190Z,86.90
2023-04-22T21:29:25.246Z,88.36
2023-04-22T21:31:27.664Z,88.47
2023-04-22T21:33:29.567Z,89.01
2023-04-22T21:35:31.242Z,89.62
2023-04-22T21:37:33.178Z,90.44
2023-04-22T21:39:34.809Z,90.38
2023-04-22T21:41:36.423Z,90.24
2023-04-22T21:43:37.868Z,90.60
2023-04-22T21:45:39.512Z,91.14
2023-04-22T21:47:41.184Z,90.94
2023-04-22T21:49:43.159Z,91.14
2023-04-22T21:51:44.664Z,91.79
2023-04-22T21:53:46.558Z,91.52
2023-04-22T21:55:48.105Z,92.69
2023-04-22T21:57:49.636Z,93.32
2023-04-22T21:59:51.096Z,93.08
2023-04-22T22:01:53.004Z,93.27
2023-04-22T22:03:54.917Z,94.48
2023-04-22T22:05:57.109Z,94.81
2023-04-22T22:07:58.629Z,95.32
2023-04-22T22:10:00.406Z,95.67
2023-04-22T22:12:01.911Z,96.08
2023-04-22T22:14:03.458Z,96.07
2023-04-22T22:16:05.378Z,96.47
2023-04-22T22:18:07.379Z,95.79
2023-04-22T22:20:11.271Z,96.08
2023-04-22T22:22:12.722Z,96.13
2023-04-22T22:24:14.217Z,96.04
2023-04-22T22:26:15.940Z,95.78
2023-04-22T22:28:17.456Z,95.80
2023-04-22T22:30:21.396Z,96.03
2023-04-22T22:32:22.846Z,96.39
2023-04-22T22:34:24.319Z,96.93
2023-04-22T22:36:25.905Z,97.16
2023-04-22T22:38:27.499Z,96.76
2023-04-22T22:40:29.109Z,96.61
2023-04-22T22:42:30.716Z,96.47
2023-04-22T22:44:32.198Z,96.70
2023-04-22T22:46:33.781Z,96.84
2023-04-22T22:48:35.272Z,97.32
2023-04-22T22:50:37.088Z,97.80
2023-04-22T22:52:38.797Z,97.32
2023-04-22T22:54:40.817Z,97.17
2023-04-22T22:56:42.556Z,97.19
2023-04-22T22:58:46.046Z,97.58
2023-04-22T23:00:47.619Z,98.23
2023-04-22T23:02:49.279Z,98.55
2023-04-22T23:04:51.260Z,98.59
2023-04-22T23:06:53.263Z,99.09
2023-04-22T23:08:54.730Z,99.28
2023-04-22T23:10:56.468Z,99.22
2023-04-22T23:12:57.918Z,99.28
2023-04-22T23:14:59.528Z,100.00
2023-04-22T23:17:01.234Z,100.00
2023-04-22T23:19:03.267Z,100.00
2023-04-22T23:21:06.567Z,100.00
2023-04-22T23:23:08.650Z,100.00
2023-04-22T23:25:11.115Z,100.00
2023-04-22T23:27:13.323Z,100.00
2023-04-22T23:29:15.045Z,100.00
2023-04-22T23:31:19.615Z,99.75
2023-04-22T23:33:24.765Z,99.23
2023-04-22T23:35:27.511Z,99.33
2023-04-22T23:37:29.679Z,99.20
2023-04-22T23:39:31.232Z,99.13
2023-04-22T23:41:33.573Z,98.98
2023-04-22T23:43:35.084Z,98.92
2023-04-22T23:45:36.564Z,98.95
2023-04-22T23:47:38.109Z,99.18
2023-04-22T23:49:39.630Z,99.24
2023-04-22T23:51:42.674Z,99.02
2023-04-22T23:53:45.368Z,98.79
2023-04-22T23:55:47.634Z,99.26
2023-04-22T23:57:50.705Z,98.62
2023-04-22T23:59:52.458Z,97.74
